Fiskburg, Kentucky
Current Conditions -  °F | °C
As of 1:53 PM on Friday 28 Nov 2014 (Local Time) from KLUK Reporting Station
Clear Clear  
Wind Chill: 28°   Ceiling: Unl
Heat Index: 35°   Visibility: 10mi
Dew Point: 15°   Wind: 9mph
Humidity: 44%   Direction: 200°SSW
Pressure: 30.29"   Gusts: NA
Location:  38.8043°N, 84.4185°W
Report Text: KLUK 281853Z 20008KT 10SM CLR 02/M09 A3029 RMK AO2 SLP262 T00171094
Loading
Personal Weather Stations






























Interactive Weather Map New forecast layout! Learn more

10-Day Weather Forecast

Advertisements
Track Severe Weather on mobile